sensor_id;sensor_type;location;lat;lon;timestamp;P1;durP1;ratioP1;P2;durP2;ratioP2
43813;SDS011;29669;55.706;37.656;2023-07-20T02:14:43;3.83;;;1.92;;
43813;SDS011;29669;55.706;37.656;2023-07-20T02:18:48;11.07;;;2.45;;
43813;SDS011;29669;55.706;37.656;2023-07-20T02:22:53;4.60;;;1.50;;
43813;SDS011;29669;55.706;37.656;2023-07-20T02:25:41;2.53;;;1.42;;
43813;SDS011;29669;55.706;37.656;2023-07-20T02:29:36;1.42;;;1.33;;
43813;SDS011;29669;55.706;37.656;2023-07-20T02:32:20;3.92;;;1.40;;
43813;SDS011;29669;55.706;37.656;2023-07-20T03:11:44;3.90;;;1.70;;
43813;SDS011;29669;55.706;37.656;2023-07-20T03:20:28;1.80;;;1.25;;
43813;SDS011;29669;55.706;37.656;2023-07-20T03:23:04;2.22;;;1.40;;
43813;SDS011;29669;55.706;37.656;2023-07-20T03:25:50;2.33;;;1.30;;
43813;SDS011;29669;55.706;37.656;2023-07-20T04:07:59;2.63;;;1.40;;
43813;SDS011;29669;55.706;37.656;2023-07-20T04:10:45;2.50;;;1.25;;
43813;SDS011;29669;55.706;37.656;2023-07-20T04:13:34;1.73;;;1.30;;
43813;SDS011;29669;55.706;37.656;2023-07-20T04:33:36;5.25;;;1.40;;
43813;SDS011;29669;55.706;37.656;2023-07-20T04:36:27;2.50;;;1.20;;
43813;SDS011;29669;55.706;37.656;2023-07-20T05:00:43;1.10;;;1.00;;
43813;SDS011;29669;55.706;37.656;2023-07-20T05:09:47;3.95;;;1.50;;
43813;SDS011;29669;55.706;37.656;2023-07-20T06:19:19;1.33;;;1.20;;
43813;SDS011;29669;55.706;37.656;2023-07-20T06:22:18;1.75;;;1.40;;
43813;SDS011;29669;55.706;37.656;2023-07-20T06:32:53;3.00;;;1.52;;
43813;SDS011;29669;55.706;37.656;2023-07-20T06:38:56;7.43;;;1.50;;
43813;SDS011;29669;55.706;37.656;2023-07-20T06:50:22;1.30;;;1.20;;
43813;SDS011;29669;55.706;37.656;2023-07-20T06:53:00;2.13;;;1.75;;
43813;SDS011;29669;55.706;37.656;2023-07-20T07:00:43;3.10;;;1.10;;
43813;SDS011;29669;55.706;37.656;2023-07-20T07:03:14;4.40;;;1.20;;
43813;SDS011;29669;55.706;37.656;2023-07-20T07:10:16;1.52;;;1.20;;
43813;SDS011;29669;55.706;37.656;2023-07-20T07:22:47;4.35;;;1.75;;
43813;SDS011;29669;55.706;37.656;2023-07-20T07:29:36;2.93;;;1.30;;
43813;SDS011;29669;55.706;37.656;2023-07-20T07:52:46;2.70;;;1.40;;
43813;SDS011;29669;55.706;37.656;2023-07-20T10:10:37;6.85;;;2.60;;
43813;SDS011;29669;55.706;37.656;2023-07-20T10:13:10;0.75;;;0.75;;
43813;SDS011;29669;55.706;37.656;2023-07-20T10:15:50;0.40;;;0.40;;
43813;SDS011;29669;55.706;37.656;2023-07-20T10:18:31;0.40;;;0.40;;
43813;SDS011;29669;55.706;37.656;2023-07-20T10:21:06;0.60;;;0.60;;
43813;SDS011;29669;55.706;37.656;2023-07-20T10:23:38;0.50;;;0.50;;
43813;SDS011;29669;55.706;37.656;2023-07-20T10:26:10;0.40;;;0.40;;
43813;SDS011;29669;55.706;37.656;2023-07-20T10:28:41;0.68;;;0.68;;
43813;SDS011;29669;55.706;37.656;2023-07-20T10:31:11;0.80;;;0.80;;
43813;SDS011;29669;55.706;37.656;2023-07-20T10:33:41;0.40;;;0.40;;
43813;SDS011;29669;55.706;37.656;2023-07-20T10:36:10;0.57;;;0.57;;
43813;SDS011;29669;55.706;37.656;2023-07-20T10:43:47;0.50;;;0.50;;
43813;SDS011;29669;55.706;37.656;2023-07-20T10:46:41;0.47;;;0.47;;
43813;SDS011;29669;55.706;37.656;2023-07-20T10:49:15;0.38;;;0.38;;
43813;SDS011;29669;55.706;37.656;2023-07-20T10:51:45;0.40;;;0.40;;
43813;SDS011;29669;55.706;37.656;2023-07-20T10:56:48;0.40;;;0.40;;
43813;SDS011;29669;55.706;37.656;2023-07-20T11:01:55;0.98;;;0.60;;
43813;SDS011;29669;55.706;37.656;2023-07-20T11:04:41;0.50;;;0.50;;
43813;SDS011;29669;55.706;37.656;2023-07-20T11:07:15;0.60;;;0.60;;
43813;SDS011;29669;55.706;37.656;2023-07-20T11:09:46;0.50;;;0.50;;
43813;SDS011;29669;55.706;37.656;2023-07-20T11:12:17;0.40;;;0.40;;
43813;SDS011;29669;55.706;37.656;2023-07-20T11:14:55;0.73;;;0.45;;
43813;SDS011;29669;55.706;37.656;2023-07-20T11:17:30;0.50;;;0.50;;
43813;SDS011;29669;55.706;37.656;2023-07-20T11:19:59;0.55;;;0.55;;
43813;SDS011;29669;55.706;37.656;2023-07-20T11:22:32;0.50;;;0.50;;
43813;SDS011;29669;55.706;37.656;2023-07-20T11:25:00;0.60;;;0.60;;
43813;SDS011;29669;55.706;37.656;2023-07-20T11:27:30;0.70;;;0.70;;
43813;SDS011;29669;55.706;37.656;2023-07-20T11:29:58;0.50;;;0.50;;
43813;SDS011;29669;55.706;37.656;2023-07-20T11:32:26;0.75;;;0.75;;
43813;SDS011;29669;55.706;37.656;2023-07-20T11:34:54;0.50;;;0.50;;
43813;SDS011;29669;55.706;37.656;2023-07-20T11:37:22;0.50;;;0.50;;
43813;SDS011;29669;55.706;37.656;2023-07-20T11:39:54;0.40;;;0.40;;
43813;SDS011;29669;55.706;37.656;2023-07-20T11:42:24;0.68;;;0.68;;
43813;SDS011;29669;55.706;37.656;2023-07-20T11:44:54;0.68;;;0.68;;
43813;SDS011;29669;55.706;37.656;2023-07-20T11:47:28;0.50;;;0.50;;
43813;SDS011;29669;55.706;37.656;2023-07-20T11:49:57;0.40;;;0.40;;
43813;SDS011;29669;55.706;37.656;2023-07-20T11:52:31;0.77;;;0.77;;
43813;SDS011;29669;55.706;37.656;2023-07-20T11:55:00;0.40;;;0.40;;
43813;SDS011;29669;55.706;37.656;2023-07-20T11:57:30;0.40;;;0.40;;
43813;SDS011;29669;55.706;37.656;2023-07-20T12:00:03;0.50;;;0.50;;
43813;SDS011;29669;55.706;37.656;2023-07-20T12:02:38;0.50;;;0.50;;
43813;SDS011;29669;55.706;37.656;2023-07-20T12:05:07;0.50;;;0.50;;
43813;SDS011;29669;55.706;37.656;2023-07-20T12:07:36;0.40;;;0.40;;
43813;SDS011;29669;55.706;37.656;2023-07-20T12:10:11;0.57;;;0.57;;
43813;SDS011;29669;55.706;37.656;2023-07-20T12:12:43;0.50;;;0.50;;
43813;SDS011;29669;55.706;37.656;2023-07-20T12:15:15;0.95;;;0.95;;
43813;SDS011;29669;55.706;37.656;2023-07-20T12:17:43;0.40;;;0.40;;
43813;SDS011;29669;55.706;37.656;2023-07-20T12:20:13;0.50;;;0.50;;
43813;SDS011;29669;55.706;37.656;2023-07-20T12:22:43;0.55;;;0.55;;
43813;SDS011;29669;55.706;37.656;2023-07-20T12:25:13;0.50;;;0.50;;
43813;SDS011;29669;55.706;37.656;2023-07-20T12:27:40;0.60;;;0.60;;
43813;SDS011;29669;55.706;37.656;2023-07-20T12:30:09;0.40;;;0.40;;
43813;SDS011;29669;55.706;37.656;2023-07-20T12:32:36;0.50;;;0.50;;
43813;SDS011;29669;55.706;37.656;2023-07-20T12:35:04;0.50;;;0.50;;
43813;SDS011;29669;55.706;37.656;2023-07-20T12:37:33;0.40;;;0.40;;
43813;SDS011;29669;55.706;37.656;2023-07-20T12:40:01;0.63;;;0.63;;
43813;SDS011;29669;55.706;37.656;2023-07-20T12:42:30;0.45;;;0.45;;
43813;SDS011;29669;55.706;37.656;2023-07-20T12:44:58;0.75;;;0.50;;
43813;SDS011;29669;55.706;37.656;2023-07-20T12:47:25;0.40;;;0.40;;
43813;SDS011;29669;55.706;37.656;2023-07-20T12:49:53;0.50;;;0.50;;
43813;SDS011;29669;55.706;37.656;2023-07-20T12:52:21;1.20;;;0.52;;
43813;SDS011;29669;55.706;37.656;2023-07-20T12:54:49;0.40;;;0.40;;
43813;SDS011;29669;55.706;37.656;2023-07-20T12:57:17;0.65;;;0.65;;
43813;SDS011;29669;55.706;37.656;2023-07-20T12:59:45;0.40;;;0.40;;
43813;SDS011;29669;55.706;37.656;2023-07-20T13:02:12;0.70;;;0.70;;
43813;SDS011;29669;55.706;37.656;2023-07-20T13:04:40;0.50;;;0.50;;
43813;SDS011;29669;55.706;37.656;2023-07-20T13:07:09;0.50;;;0.50;;
43813;SDS011;29669;55.706;37.656;2023-07-20T13:09:42;0.45;;;0.45;;
43813;SDS011;29669;55.706;37.656;2023-07-20T13:12:09;0.30;;;0.30;;
43813;SDS011;29669;55.706;37.656;2023-07-20T13:14:37;0.40;;;0.40;;
43813;SDS011;29669;55.706;37.656;2023-07-20T13:17:05;0.50;;;0.50;;
43813;SDS011;29669;55.706;37.656;2023-07-20T13:19:32;0.47;;;0.47;;
43813;SDS011;29669;55.706;37.656;2023-07-20T13:22:00;1.02;;;0.75;;
43813;SDS011;29669;55.706;37.656;2023-07-20T13:24:28;0.40;;;0.40;;
43813;SDS011;29669;55.706;37.656;2023-07-20T13:26:56;0.55;;;0.55;;
43813;SDS011;29669;55.706;37.656;2023-07-20T13:29:24;0.60;;;0.60;;
43813;SDS011;29669;55.706;37.656;2023-07-20T13:31:52;0.30;;;0.30;;
43813;SDS011;29669;55.706;37.656;2023-07-20T13:34:22;0.60;;;0.60;;
43813;SDS011;29669;55.706;37.656;2023-07-20T13:36:59;0.60;;;0.60;;
43813;SDS011;29669;55.706;37.656;2023-07-20T13:39:28;0.40;;;0.40;;
43813;SDS011;29669;55.706;37.656;2023-07-20T13:41:56;0.50;;;0.50;;
43813;SDS011;29669;55.706;37.656;2023-07-20T13:44:25;0.47;;;0.47;;
43813;SDS011;29669;55.706;37.656;2023-07-20T13:51:48;0.50;;;0.50;;
43813;SDS011;29669;55.706;37.656;2023-07-20T13:54:24;0.40;;;0.40;;
43813;SDS011;29669;55.706;37.656;2023-07-20T13:58:04;0.60;;;0.60;;
43813;SDS011;29669;55.706;37.656;2023-07-20T14:01:07;0.50;;;0.50;;
43813;SDS011;29669;55.706;37.656;2023-07-20T14:04:39;0.40;;;0.40;;
43813;SDS011;29669;55.706;37.656;2023-07-20T14:07:20;0.40;;;0.40;;
43813;SDS011;29669;55.706;37.656;2023-07-20T14:10:22;0.50;;;0.50;;
43813;SDS011;29669;55.706;37.656;2023-07-20T14:12:50;0.40;;;0.40;;
43813;SDS011;29669;55.706;37.656;2023-07-20T14:15:23;0.38;;;0.38;;
43813;SDS011;29669;55.706;37.656;2023-07-20T14:17:53;0.40;;;0.40;;
43813;SDS011;29669;55.706;37.656;2023-07-20T14:20:41;0.40;;;0.40;;
43813;SDS011;29669;55.706;37.656;2023-07-20T14:23:30;0.70;;;0.70;;
43813;SDS011;29669;55.706;37.656;2023-07-20T14:28:55;1.00;;;1.00;;
43813;SDS011;29669;55.706;37.656;2023-07-20T14:31:25;0.40;;;0.40;;
43813;SDS011;29669;55.706;37.656;2023-07-20T14:33:57;0.68;;;0.68;;
43813;SDS011;29669;55.706;37.656;2023-07-20T14:45:09;0.50;;;0.50;;
43813;SDS011;29669;55.706;37.656;2023-07-20T14:47:40;0.50;;;0.50;;
43813;SDS011;29669;55.706;37.656;2023-07-20T14:52:24;0.45;;;0.45;;
43813;SDS011;29669;55.706;37.656;2023-07-20T22:53:58;5.85;;;2.60;;
43813;SDS011;29669;55.706;37.656;2023-07-20T23:16:17;4.63;;;2.75;;
43813;SDS011;29669;55.706;37.656;2023-07-20T23:18:49;5.10;;;2.75;;
43813;SDS011;29669;55.706;37.656;2023-07-20T23:21:19;3.25;;;2.70;;
43813;SDS011;29669;55.706;37.656;2023-07-20T23:37:57;3.85;;;2.47;;
